Air Navigation Services of Czech Republic  
Last data update:  14.06.2021 01:44:27 UTC česká verze
   METEO Page displayed:  14.06.2021 01:45:45 UTC  
vysvětlivky
METAR EDDB 140120Z VRB01KT CAVOK 09/07 Q1024 NOSIG=
METAR EDDC 140120Z 23004KT CAVOK 10/07 Q1025=
METAR EDDE 140120Z 21008KT CAVOK 09/07 Q1025=
METAR EDDF 140120Z 07006KT CAVOK 13/09 Q1024 NOSIG=
METAR EDDM 140120Z 02005KT CAVOK 09/06 Q1025 NOSIG=
METAR EDDN 140120Z VRB02KT CAVOK 10/08 Q1025=
METAR EDDP 140120Z 28002KT CAVOK 10/09 Q1025 NOSIG=
METAR EDQM NIL
METAR EPBY 140130Z 25005KT CAVOK 07/06 Q1022=
METAR EPGD 140130Z 25006G16KT CAVOK 10/08 Q1021=
METAR EPKK 140130Z 29006KT 250V320 9999 FEW065 11/08 Q1022=
METAR EPKT 140130Z 26004KT CAVOK 07/06 Q1023=
METAR EPLL 140130Z 28005KT CAVOK 09/07 Q1022=
METAR EPPO 140130Z 28004KT 9999 MIFG NSC 07/07 Q1023=
METAR EPRZ 140130Z 29011KT CAVOK 11/10 Q1019=
METAR EPWA 140130Z 31008KT CAVOK 11/09 Q1020 NOSIG=
METAR EPWR 140130Z 29003KT CAVOK 07/07 Q1024=
METAR LHBP 140130Z 33007KT CAVOK 10/06 Q1020 NOSIG=
METAR LHSM 140115Z AUTO 33010KT CAVOK 12/06 Q1023=
METAR LKBC 140130Z AUTO 07003KT CAVOK 06/05 Q1025=
METAR LKCV 140130Z VRB02KT CAVOK 10/08 Q1025 NOSIG RMK BLU BLU=
METAR LKKB 140130Z 20004KT CAVOK 08/06 Q1025 RMK BLU=
METAR LKKU NIL
METAR LKKV 140100Z VRB02KT CAVOK 05/04 Q1026 RMK REG QNH 1022=
METAR LKLN 140130Z AUTO 00000KT CAVOK 07/07 Q1026=
METAR LKMT 140130Z 20004KT CAVOK 10/07 Q1024 NOSIG RMK REG QNH 1022=
METAR LKNA 140130Z 29007KT 9999 OVC047 08/06 Q1025 RMK BLU=
METAR LKPD 140130Z 00000KT CAVOK 12/08 Q1025 RMK BLU=
METAR LKPJ 140130Z AUTO 32005KT CAVOK 10/06 Q1024=
METAR LKPR 140130Z 24009KT CAVOK 08/06 Q1025 NOSIG RMK REG QNH 1022=
METAR LKTB 140130Z 30006KT CAVOK 10/06 Q1024 NOSIG RMK REG QNH 1022=
METAR LKVO NIL
METAR LOWI 140120Z AUTO 17003KT 9999 NCD 12/08 Q1025=
METAR LOWL 140120Z 03003KT CAVOK 11/06 Q1026 NOSIG=
METAR LOWS 140120Z AUTO 13002KT 9999 NCD 10/08 Q1025=
METAR LOWW 140120Z 32011KT CAVOK 12/06 Q1024 NOSIG=
METAR LZIB 140130Z 33008KT CAVOK 12/06 Q1024=
METAR LZKZ 140130Z 35010KT 9999 FEW040 14/07 Q1019=
METAR LZMC 140100Z AUTO 36005KT 6000 R19/1500 ////// 09/06 Q1025=
METAR LZPP 140130Z AUTO 03002KT 9999 NCD 10/06 Q1023=
METAR LZSL 140100Z AUTO 01004KT 7000 // OVC220/// 11/05 Q1021=
METAR LZTT 140130Z 30004KT 270V340 9999 -RA FEW033 BKN053 09/06 Q1021=
METAR LZZI 140130Z VRB02KT 9999 OVC027 10/08 Q1023=